Time;durP1;ratioP1;P1;durP2;ratioP2;P2;SDS_P1;SDS_P2;PMS_P1;PMS_P2;Temp;Humidity;BMP_temperature;BMP_pressure;BME280_temperature;BME280_humidity;BME280_pressure;Samples;Min_cycle;Max_cycle;Signal;HPM_P1;HPM_P2
2022/06/01 00:00:39;;;;;;;6.87;6.23;;;;;;;12.54;80.23;100272.45;1750669;80;21239;-78
2022/06/01 00:03:07;;;;;;;8.90;6.65;;;;;;;12.52;80.35;100251.48;1751016;80;21088;-78
2022/06/01 00:05:35;;;;;;;8.18;6.70;;;;;;;12.51;80.45;100252.42;1750746;80;21080;-83
2022/06/01 00:08:02;;;;;;;6.77;6.03;;;;;;;12.52;80.68;100249.32;1750949;80;21273;-78
2022/06/01 00:10:30;;;;;;;7.97;6.40;;;;;;;12.52;80.79;100239.66;1750638;80;21026;-78
2022/06/01 00:12:57;;;;;;;6.92;6.17;;;;;;;12.52;80.77;100233.08;1751029;80;21109;-78
2022/06/01 00:15:26;;;;;;;7.22;6.53;;;;;;;12.53;80.82;100226.07;1750615;80;21087;-79
2022/06/01 00:17:57;;;;;;;7.62;6.17;;;;;;;12.56;81.04;100233.81;1751139;80;21024;-82
2022/06/01 00:20:23;;;;;;;7.17;6.47;;;;;;;12.55;80.91;100247.39;1750743;80;21041;-80
2022/06/01 00:22:51;;;;;;;7.30;6.40;;;;;;;12.55;80.87;100249.17;1750977;80;21036;-78
2022/06/01 00:25:19;;;;;;;9.10;6.90;;;;;;;12.57;81.00;100261.32;1750792;80;21166;-87
2022/06/01 00:27:46;;;;;;;8.10;7.23;;;;;;;12.57;80.89;100261.80;1750996;80;21049;-82
2022/06/01 00:30:16;;;;;;;7.67;6.97;;;;;;;12.57;81.11;100260.48;1750728;80;21539;-79
2022/06/01 00:32:44;;;;;;;8.25;7.35;;;;;;;12.57;81.02;100257.37;1751065;80;21087;-78
2022/06/01 00:35:16;;;;;;;7.72;6.87;;;;;;;12.59;81.16;100247.65;1750796;80;21032;-78
2022/06/01 00:37:43;;;;;;;9.73;7.20;;;;;;;12.57;81.22;100241.60;1750650;80;21129;-78
2022/06/01 00:40:14;;;;;;;8.13;7.08;;;;;;;12.58;81.23;100244.64;1750650;80;21085;-81
2022/06/01 00:42:45;;;;;;;7.15;6.45;;;;;;;12.57;81.32;100247.33;1750676;80;21009;-78
2022/06/01 00:45:16;;;;;;;7.85;6.65;;;;;;;12.58;81.51;100245.08;1750779;80;21016;-80
2022/06/01 00:47:44;;;;;;;8.53;6.55;;;;;;;12.59;81.52;100243.70;1750956;80;21001;-78
2022/06/01 00:50:31;;;;;;;7.53;6.30;;;;;;;12.59;81.61;100234.97;1750738;80;21840;-78
2022/06/01 00:53:03;;;;;;;8.83;7.08;;;;;;;12.61;81.61;100251.50;1734551;81;21042;-81
2022/06/01 00:55:35;;;;;;;7.10;6.50;;;;;;;12.61;81.64;100249.75;1688145;83;21094;-79
2022/06/01 00:58:18;;;;;;;7.22;6.60;;;;;;;12.61;81.57;100237.05;1734893;81;21077;-78
2022/06/01 01:00:49;;;;;;;7.15;6.45;;;;;;;12.61;81.71;100235.73;1687903;83;20979;-88
2022/06/01 01:03:18;;;;;;;7.92;6.75;;;;;;;12.63;81.75;100235.20;1734798;81;21112;-80
2022/06/01 01:06:17;;;;;;;7.65;6.95;;;;;;;12.60;81.55;100232.72;1688789;83;21062;-79
2022/06/01 01:08:47;;;;;;;7.75;6.80;;;;;;;12.59;81.51;100236.28;1688572;83;21039;-87
2022/06/01 01:11:14;;;;;;;;;;;;;;;12.56;81.48;100236.44;1737385;81;21037;-88
2022/06/01 01:13:46;;;;;;;10.25;6.75;;;;;;;12.52;81.75;100244.06;1737582;81;21140;-79
2022/06/01 01:16:16;;;;;;;8.00;7.30;;;;;;;12.45;81.45;100244.36;1717152;81;21248;-86
2022/06/01 01:18:46;;;;;;;8.03;7.22;;;;;;;12.43;81.68;100240.95;1717153;81;21069;-90
2022/06/01 01:21:28;;;;;;;8.00;7.20;;;;;;;12.43;81.76;100238.31;1717402;81;21041;-78
2022/06/01 01:24:45;;;;;;;8.30;6.80;;;;;;;12.40;81.67;100231.89;1717210;81;21013;-78
2022/06/01 01:27:13;;;;;;;7.35;5.60;;;;;;;12.37;81.51;100228.09;1677810;84;21660;-79
2022/06/01 01:29:44;;;;;;;8.20;5.60;;;;;;;12.33;81.45;100230.93;1709766;83;21131;-78
2022/06/01 01:32:14;;;;;;;5.77;5.17;;;;;;;12.32;81.49;100233.18;1710164;82;21545;-78
2022/06/01 01:34:44;;;;;;;7.20;4.83;;;;;;;12.31;81.58;100231.02;1712528;82;21107;-78
2022/06/01 01:37:22;;;;;;;5.80;4.58;;;;;;;12.31;81.55;100231.49;1690551;84;21135;-90
2022/06/01 01:39:51;;;;;;;4.15;3.75;;;;;;;12.31;81.34;100232.34;1692568;82;21063;-78
2022/06/01 01:42:19;;;;;;;6.50;4.50;;;;;;;12.25;81.34;100225.59;1679312;84;21119;-90
2022/06/01 01:45:07;;;;;;;5.85;4.22;;;;;;;12.24;81.37;100215.98;1641458;87;21146;-81
2022/06/01 01:47:39;;;;;;;5.87;5.17;;;;;;;12.23;81.33;100221.33;1666905;85;21099;-82
2022/06/01 01:50:11;;;;;;;5.28;4.60;;;;;;;12.19;81.03;100224.57;1665046;85;21275;-79
2022/06/01 01:52:39;;;;;;;5.28;4.50;;;;;;;12.17;81.15;100226.87;1664933;85;21601;-83
2022/06/01 01:55:46;;;;;;;6.58;4.60;;;;;;;12.16;81.24;100225.16;1665311;85;21801;-89
2022/06/01 01:58:33;;;;;;;6.67;5.53;;;;;;;12.15;81.27;100227.40;1667545;85;21484;-78
2022/06/01 02:01:11;;;;;;;8.37;5.73;;;;;;;12.08;80.93;100225.50;1669959;85;21320;-81
2022/06/01 02:03:50;;;;;;;6.50;5.75;;;;;;;12.02;80.94;100229.26;1707798;82;21062;-80
2022/06/01 02:06:37;;;;;;;6.90;5.43;;;;;;;11.96;81.04;100233.48;1724884;81;21003;-79
2022/06/01 02:09:09;;;;;;;7.07;5.60;;;;;;;11.92;81.01;100235.03;1726327;81;21919;-78
2022/06/01 02:14:56;;;;;;;5.33;4.47;;;;;;;11.83;81.33;100221.79;1726644;81;21058;-83
2022/06/01 02:17:39;;;;;;;6.30;4.60;;;;;;;11.79;81.37;100219.77;1726530;81;21022;-79
2022/06/01 02:20:18;;;;;;;5.77;4.80;;;;;;;11.77;81.26;100230.80;1726589;81;21596;-80
2022/06/01 02:22:46;;;;;;;5.47;4.10;;;;;;;11.73;81.34;100224.46;1725205;81;21136;-78
2022/06/01 02:25:13;;;;;;;6.73;3.90;;;;;;;11.74;81.45;100223.52;1726571;83;21058;-79
2022/06/01 02:27:43;;;;;;;4.30;3.90;;;;;;;11.73;81.32;100222.68;1726512;82;21082;-86
2022/06/01 02:30:33;;;;;;;6.40;4.30;;;;;;;11.74;81.53;100230.09;1696348;83;20982;-82
2022/06/01 02:33:03;;;;;;;6.30;4.00;;;;;;;11.74;81.57;100230.94;1726180;81;21017;-82
2022/06/01 02:35:36;;;;;;;4.57;3.13;;;;;;;11.75;81.25;100233.09;1726746;81;21284;-79
2022/06/01 02:38:10;;;;;;;3.63;3.33;;;;;;;11.72;81.17;100231.49;1726383;81;21070;-79
2022/06/01 02:40:38;;;;;;;4.43;3.40;;;;;;;11.70;81.15;100221.97;1726694;81;21509;-79
2022/06/01 02:43:05;;;;;;;5.28;3.35;;;;;;;11.68;81.21;100222.03;1740407;80;21004;-87
2022/06/01 02:45:33;;;;;;;5.17;3.90;;;;;;;11.68;81.25;100227.75;1777491;80;21040;-80
2022/06/01 02:48:03;;;;;;;4.37;3.75;;;;;;;11.67;81.51;100226.05;1777852;80;21738;-81
2022/06/01 02:50:33;;;;;;;4.17;3.77;;;;;;;11.66;81.15;100225.17;1777601;80;21031;-80
2022/06/01 02:53:01;;;;;;;4.25;3.85;;;;;;;11.62;81.30;100227.55;1777738;80;21063;-79
2022/06/01 02:55:31;;;;;;;7.37;3.60;;;;;;;11.63;81.51;100234.97;1777693;80;21087;-79
2022/06/01 02:57:59;;;;;;;4.27;3.57;;;;;;;11.60;81.83;100218.42;1777975;80;21040;-83
2022/06/01 03:00:35;;;;;;;3.83;3.47;;;;;;;11.60;81.83;100218.42;1777415;80;21722;-79
2022/06/01 03:03:05;;;;;;;3.30;2.83;;;;;;;11.67;81.75;100225.59;1777275;80;21070;-81
2022/06/01 03:05:37;;;;;;;4.08;3.50;;;;;;;11.68;81.71;100227.28;1731034;80;21059;-82
2022/06/01 03:08:05;;;;;;;3.43;3.13;;;;;;;11.69;81.77;100225.03;1777576;80;21047;-78
2022/06/01 03:10:33;;;;;;;4.37;3.67;;;;;;;11.69;81.80;100226.34;1777664;80;21060;-82
2022/06/01 03:13:00;;;;;;;3.70;3.20;;;;;;;11.71;81.77;100223.66;1777497;80;21108;-80
2022/06/01 03:15:28;;;;;;;5.20;3.30;;;;;;;11.70;81.70;100222.82;1777536;80;21004;-78
2022/06/01 03:17:55;;;;;;;4.90;3.10;;;;;;;11.69;81.51;100223.72;1777529;80;21035;-78
2022/06/01 03:20:27;;;;;;;5.08;2.87;;;;;;;11.69;81.57;100221.56;1777483;80;21051;-79
2022/06/01 03:22:58;;;;;;;6.67;3.47;;;;;;;11.67;81.68;100224.73;1777535;80;21043;-81
2022/06/01 03:25:27;;;;;;;4.40;2.93;;;;;;;11.66;81.68;100221.23;1777947;80;21878;-78
2022/06/01 03:27:59;;;;;;;3.58;2.90;;;;;;;11.67;81.73;100226.05;1777549;80;21071;-79
2022/06/01 03:30:28;;;;;;;3.30;3.00;;;;;;;11.66;81.78;100225.17;1777794;80;21036;-80
2022/06/01 03:32:57;;;;;;;3.87;2.83;;;;;;;11.66;81.63;100226.95;1777752;80;21037;-78
2022/06/01 03:35:29;;;;;;;4.95;2.70;;;;;;;11.64;81.63;100225.73;1777864;80;21059;-79
2022/06/01 03:38:02;;;;;;;4.92;2.60;;;;;;;11.64;81.64;100236.22;1777666;80;21295;-86
2022/06/01 03:40:29;;;;;;;4.47;2.90;;;;;;;11.63;81.73;100230.56;1776579;80;20999;-78
2022/06/01 03:42:56;;;;;;;3.58;2.80;;;;;;;11.64;81.67;100232.72;1779453;80;21050;-84
2022/06/01 03:48:11;;;;;;;6.78;2.62;;;;;;;11.64;81.74;100230.09;1785670;79;21540;-83
2022/06/01 03:50:39;;;;;;;3.40;2.60;;;;;;;11.63;81.73;100235.81;1785625;79;21759;-79
2022/06/01 03:53:06;;;;;;;3.33;2.70;;;;;;;11.65;82.06;100241.01;1785690;79;21027;-80
2022/06/01 03:55:37;;;;;;;3.77;2.93;;;;;;;11.66;81.74;100239.61;1785855;80;21000;-78
2022/06/01 03:58:05;;;;;;;2.75;2.50;;;;;;;11.65;81.79;100243.17;1785504;79;21508;-81
2022/06/01 04:00:33;;;;;;;4.30;3.03;;;;;;;11.64;81.80;100240.16;1785600;79;21043;-79
2022/06/01 04:03:01;;;;;;;4.50;3.67;;;;;;;11.61;81.57;100245.09;1785455;79;21621;-78
2022/06/01 04:05:28;;;;;;;4.77;3.63;;;;;;;11.57;81.48;100254.46;1785517;80;21055;-84
2022/06/01 04:07:55;;;;;;;5.00;3.50;;;;;;;11.51;81.49;100262.14;1785774;79;20977;-79
2022/06/01 04:10:22;;;;;;;6.97;4.03;;;;;;;11.47;81.58;100259.70;1785576;80;21078;-81
2022/06/01 04:12:49;;;;;;;6.53;4.40;;;;;;;11.45;81.78;100265.50;1785623;79;20995;-85
2022/06/01 04:15:17;;;;;;;5.27;4.10;;;;;;;11.42;81.82;100270.42;1785473;80;21794;-79
2022/06/01 04:17:45;;;;;;;5.90;4.33;;;;;;;11.42;81.99;100266.48;1785559;79;21027;-79
2022/06/01 04:20:13;;;;;;;8.53;3.97;;;;;;;11.45;82.16;100269.44;1765114;79;21023;-82
2022/06/01 04:22:43;;;;;;;5.53;4.40;;;;;;;11.46;82.32;100265.88;1763734;80;21050;-81
2022/06/01 04:25:16;;;;;;;9.57;6.10;;;;;;;11.50;82.55;100266.13;1765998;80;21118;-85
2022/06/01 04:27:44;;;;;;;7.07;4.77;;;;;;;11.55;82.81;100261.55;1757183;80;21919;-81
2022/06/01 04:30:15;;;;;;;5.53;4.57;;;;;;;11.64;83.05;100262.91;1750679;80;21057;-80
2022/06/01 04:32:45;;;;;;;8.77;5.57;;;;;;;11.72;83.20;100263.43;1750847;80;21005;-80
2022/06/01 04:35:13;;;;;;;7.40;5.28;;;;;;;11.80;83.25;100258.23;1750769;80;20972;-82
2022/06/01 04:37:41;;;;;;;8.70;5.30;;;;;;;11.89;83.09;100267.97;1750882;80;21103;-84
2022/06/01 04:40:11;;;;;;;8.48;5.33;;;;;;;11.97;83.13;100268.05;1750434;80;21844;-79
2022/06/01 04:42:39;;;;;;;6.30;5.33;;;;;;;12.04;83.26;100259.41;1734967;80;21502;-78
2022/06/01 04:45:10;;;;;;;6.33;5.20;;;;;;;12.11;83.13;100255.59;1750622;80;21060;-83
2022/06/01 04:47:38;;;;;;;5.78;5.17;;;;;;;12.18;83.00;100252.22;1751057;80;21021;-79
2022/06/01 04:50:09;;;;;;;7.17;5.70;;;;;;;12.25;82.93;100254.97;1750474;80;21005;-79
2022/06/01 04:52:37;;;;;;;8.33;5.37;;;;;;;12.33;82.81;100257.21;1750901;80;21515;-80
2022/06/01 04:55:07;;;;;;;6.30;5.03;;;;;;;12.38;82.77;100256.55;1750735;80;21041;-84
2022/06/01 04:57:34;;;;;;;7.90;5.72;;;;;;;12.46;82.92;100259.66;1750955;80;21565;-78
2022/06/01 05:00:03;;;;;;;5.45;4.45;;;;;;;12.52;82.70;100255.89;1750608;80;22170;-80
2022/06/01 05:02:30;;;;;;;6.55;5.10;;;;;;;12.57;82.47;100252.59;1750554;80;21551;-93
2022/06/01 05:04:58;;;;;;;6.85;5.30;;;;;;;12.62;82.34;100263.27;1751042;80;21163;-81
2022/06/01 05:07:25;;;;;;;5.67;4.75;;;;;;;12.68;82.23;100260.81;1772772;79;21023;-81
2022/06/01 05:09:52;;;;;;;5.87;5.10;;;;;;;12.72;82.02;100258.45;1774530;79;21051;-86
2022/06/01 05:12:19;;;;;;;6.10;5.30;;;;;;;12.78;81.93;100258.61;1781911;79;21470;-80
2022/06/01 05:14:47;;;;;;;5.08;4.47;;;;;;;12.83;82.03;100253.95;1776579;80;21034;-83
2022/06/01 05:17:14;;;;;;;5.00;4.50;;;;;;;12.89;82.03;100261.57;1772799;80;21866;-81
2022/06/01 05:19:41;;;;;;;4.95;4.33;;;;;;;12.95;81.84;100269.16;1780896;80;21039;-86
2022/06/01 05:22:09;;;;;;;6.12;5.53;;;;;;;13.01;81.86;100267.53;1775360;80;21020;-81
2022/06/01 05:24:36;;;;;;;7.15;5.75;;;;;;;13.09;81.92;100265.38;1751501;80;21033;-80
2022/06/01 05:27:04;;;;;;;8.98;5.35;;;;;;;13.15;81.90;100260.27;1748434;80;21052;-80
2022/06/01 05:29:32;;;;;;;5.72;5.10;;;;;;;13.21;81.96;100265.69;1748135;80;21147;-81
2022/06/01 05:31:59;;;;;;;8.23;5.00;;;;;;;13.29;81.92;100258.30;1748418;80;20994;-80
2022/06/01 05:34:26;;;;;;;5.60;5.08;;;;;;;13.37;81.94;100262.70;1748084;80;21040;-79
2022/06/01 05:36:53;;;;;;;7.37;5.20;;;;;;;13.46;81.76;100263.55;1748414;80;21025;-79
2022/06/01 05:39:21;;;;;;;7.17;4.20;;;;;;;13.53;81.84;100266.27;1748126;80;21048;-79
2022/06/01 05:41:48;;;;;;;5.45;4.33;;;;;;;13.64;81.71;100272.77;1751374;80;22237;-78
2022/06/01 05:49:26;;;;;;;5.03;3.47;;;;;;;13.90;81.29;100285.88;1755025;80;21142;-84
2022/06/01 05:51:55;;;;;;;5.53;4.20;;;;;;;14.15;81.28;100281.48;1727647;80;21034;-79
2022/06/01 05:54:23;;;;;;;6.85;4.25;;;;;;;14.27;80.87;100277.72;1692603;83;21067;-80
2022/06/01 05:56:50;;;;;;;5.20;4.12;;;;;;;14.33;80.50;100289.72;1692678;83;21217;-84
2022/06/01 05:59:18;;;;;;;6.08;3.98;;;;;;;14.34;79.78;100301.95;1692492;83;21538;-78
2022/06/01 06:01:45;;;;;;;4.80;4.00;;;;;;;14.28;78.98;100304.94;1692611;83;21652;-78
2022/06/01 06:04:12;;;;;;;4.60;3.87;;;;;;;14.23;78.70;100305.17;1692783;83;21090;-80
2022/06/01 06:06:40;;;;;;;5.90;4.70;;;;;;;14.19;78.59;100313.31;1715738;83;21025;-78
2022/06/01 06:09:09;;;;;;;8.20;4.80;;;;;;;14.17;78.80;100320.48;1738338;82;21219;-78
2022/06/01 06:11:40;;;;;;;5.45;4.92;;;;;;;14.18;78.65;100317.74;1738178;82;21029;-79
2022/06/01 06:14:08;;;;;;;5.85;5.28;;;;;;;14.14;78.02;100320.64;1737926;82;20994;-78
2022/06/01 06:16:44;;;;;;;6.70;5.97;;;;;;;13.99;77.59;100331.03;1737815;82;21555;-79
2022/06/01 06:19:09;;;;;;;7.30;6.28;;;;;;;13.96;77.78;100335.63;1737083;81;21065;-80
2022/06/01 06:21:37;;;;;;;7.83;7.08;;;;;;;13.91;77.45;100342.47;1737792;82;21506;-79
2022/06/01 06:24:09;;;;;;;8.80;6.92;;;;;;;13.79;77.14;100353.62;1737827;82;21582;-77
2022/06/01 06:26:39;;;;;;;8.18;7.40;;;;;;;13.63;76.88;100352.69;1737912;82;21068;-78
2022/06/01 06:29:09;;;;;;;8.68;7.62;;;;;;;13.49;77.04;100349.43;1738103;82;21479;-83
2022/06/01 06:31:38;;;;;;;8.80;7.93;;;;;;;13.42;77.21;100349.36;1738136;82;21277;-81
2022/06/01 06:34:06;;;;;;;9.00;8.10;;;;;;;13.36;77.46;100342.16;1738140;82;21578;-78
2022/06/01 06:36:34;;;;;;;10.00;8.80;;;;;;;13.30;77.57;100346.41;1738197;82;20978;-78
2022/06/01 06:39:01;;;;;;;10.85;9.45;;;;;;;13.25;77.80;100349.70;1737909;82;21092;-81
2022/06/01 06:41:29;;;;;;;9.45;8.50;;;;;;;13.16;77.57;100344.42;1738399;82;21069;-78
2022/06/01 06:43:56;;;;;;;10.60;9.45;;;;;;;13.09;77.45;100347.42;1738230;82;21064;-78
2022/06/01 06:46:24;;;;;;;9.95;8.95;;;;;;;13.01;77.61;100355.67;1738304;82;21156;-82
2022/06/01 06:48:52;;;;;;;10.68;9.10;;;;;;;13.00;78.09;100360.99;1738047;82;21025;-78
2022/06/01 06:51:22;;;;;;;10.10;9.03;;;;;;;13.05;78.31;100357.69;1744877;81;21607;-78
2022/06/01 06:53:49;;;;;;;11.75;8.78;;;;;;;13.06;78.20;100350.20;1750943;81;21021;-78
2022/06/01 06:56:20;;;;;;;10.53;9.53;;;;;;;13.08;78.37;100359.73;1751263;81;21251;-79
2022/06/01 06:58:46;;;;;;;;;;;;;;;13.15;78.98;100349.28;1753788;81;21110;-78
2022/06/01 07:01:14;;;;;;;9.70;7.75;;;;;;;13.24;78.79;100352.39;1751041;81;20431;-82
2022/06/01 07:03:41;;;;;;;9.60;8.40;;;;;;;13.27;78.70;100350.95;1751099;81;21052;-83
2022/06/01 07:06:09;;;;;;;8.90;7.90;;;;;;;13.31;78.63;100349.42;1751037;81;21127;-78
2022/06/01 07:08:39;;;;;;;9.75;8.80;;;;;;;13.36;78.56;100349.20;1750842;81;21529;-78
2022/06/01 07:11:07;;;;;;;9.88;8.58;;;;;;;13.41;78.42;100348.95;1751022;81;21095;-77
2022/06/01 07:13:35;;;;;;;8.33;7.53;;;;;;;13.43;78.65;100345.80;1750785;81;21510;-80
2022/06/01 07:16:15;;;;;;;9.35;8.35;;;;;;;13.50;78.81;100352.47;1750749;81;21041;-79
2022/06/01 07:18:47;;;;;;;10.35;7.45;;;;;;;13.57;78.57;100356.48;1750821;81;21032;-78
2022/06/01 07:21:16;;;;;;;8.10;7.30;;;;;;;13.62;78.57;100351.84;1750780;82;21044;-76
2022/06/01 07:23:45;;;;;;;7.75;6.95;;;;;;;13.65;78.45;100356.11;1750799;81;21132;-78
2022/06/01 07:26:21;;;;;;;7.17;6.37;;;;;;;13.70;78.55;100352.31;1750733;81;20952;-78
2022/06/01 07:28:51;;;;;;;5.92;5.42;;;;;;;13.79;78.50;100352.30;1728911;81;21538;-80
2022/06/01 07:31:18;;;;;;;6.50;5.90;;;;;;;13.87;78.34;100359.34;1750717;81;21526;-78
2022/06/01 07:33:47;;;;;;;6.47;5.87;;;;;;;13.95;78.32;100356.33;1750810;81;21032;-82
2022/06/01 07:36:16;;;;;;;5.92;5.00;;;;;;;14.03;78.19;100360.27;1750710;81;21080;-77
2022/06/01 07:44:34;;;;;;;5.00;4.50;;;;;;;14.41;78.22;100366.63;1750764;81;21072;-82
2022/06/01 07:47:03;;;;;;;4.33;3.92;;;;;;;14.59;78.04;100382.42;1750723;82;21256;-78
2022/06/01 07:49:31;;;;;;;4.85;4.45;;;;;;;14.66;77.53;100370.14;1750800;81;21114;-84
2022/06/01 07:51:59;;;;;;;3.67;3.35;;;;;;;14.78;77.44;100373.89;1746785;80;21024;-78
2022/06/01 07:54:26;;;;;;;4.78;4.28;;;;;;;14.87;77.14;100373.84;1744957;82;21049;-78
2022/06/01 07:56:54;;;;;;;5.50;4.20;;;;;;;15.00;77.09;100370.92;1744924;82;21013;-78
2022/06/01 07:59:22;;;;;;;3.45;3.15;;;;;;;15.12;76.87;100378.13;1745260;82;21247;-77
2022/06/01 08:01:49;;;;;;;3.15;2.85;;;;;;;15.23;76.49;100380.17;1724569;82;21144;-78
2022/06/01 08:04:17;;;;;;;5.47;3.35;;;;;;;15.28;75.75;100378.12;1745002;82;21033;-78
2022/06/01 08:06:44;;;;;;;3.25;2.95;;;;;;;15.37;75.61;100376.75;1744819;82;21044;-84
2022/06/01 08:09:11;;;;;;;3.55;3.22;;;;;;;15.48;75.46;100378.77;1744839;82;21616;-79
2022/06/01 08:14:24;;;;;;;3.67;3.37;;;;;;;15.76;74.96;100382.85;1744998;82;21155;-79
2022/06/01 08:16:52;;;;;;;5.03;3.30;;;;;;;15.85;74.43;100385.42;1745079;82;21056;-78
2022/06/01 08:19:20;;;;;;;4.10;3.50;;;;;;;15.90;74.26;100387.80;1744781;82;21048;-78
2022/06/01 08:21:47;;;;;;;3.30;2.90;;;;;;;16.01;74.40;100394.14;1745155;82;21572;-78
2022/06/01 08:24:15;;;;;;;3.50;3.20;;;;;;;16.11;74.19;100389.65;1744875;82;21057;-79
2022/06/01 08:26:43;;;;;;;3.37;3.08;;;;;;;16.19;73.84;100386.06;1745035;82;21104;-78
2022/06/01 08:29:11;;;;;;;4.35;3.95;;;;;;;16.25;73.24;100383.89;1744676;81;21650;-85
2022/06/01 08:31:40;;;;;;;5.22;4.05;;;;;;;16.36;73.37;100395.62;1716371;82;21012;-78
2022/06/01 08:34:08;;;;;;;4.10;3.70;;;;;;;16.46;73.39;100386.16;1745103;81;21128;-79
2022/06/01 08:36:36;;;;;;;3.62;3.33;;;;;;;16.59;73.26;100384.93;1745031;82;21502;-81
2022/06/01 08:39:04;;;;;;;4.58;3.47;;;;;;;16.78;72.59;100388.16;1744778;82;21124;-78
2022/06/01 08:41:35;;;;;;;4.22;3.15;;;;;;;16.78;72.59;100388.16;1745002;82;21049;-78
2022/06/01 08:44:20;;;;;;;3.20;3.00;;;;;;;16.86;71.91;100395.63;1745052;82;21037;-78
2022/06/01 08:46:47;;;;;;;4.20;3.42;;;;;;;16.86;71.36;100395.14;1745017;82;21010;-78
2022/06/01 08:49:20;;;;;;;3.83;3.30;;;;;;;17.05;71.60;100400.60;1745096;82;21310;-78
2022/06/01 08:51:47;;;;;;;3.67;3.37;;;;;;;17.05;71.60;100400.60;1747226;80;21387;-78
2022/06/01 08:54:15;;;;;;;6.45;3.22;;;;;;;17.21;71.15;100401.32;1750699;81;21021;-80
2022/06/01 08:56:50;;;;;;;3.90;2.60;;;;;;;17.30;70.60;100399.39;1750841;81;21526;-80
2022/06/01 09:00:00;;;;;;;5.03;2.80;;;;;;;17.37;70.04;100399.83;1751066;81;21482;-85
2022/06/01 09:03:08;;;;;;;4.53;3.05;;;;;;;17.47;70.29;100406.23;1750600;81;21064;-81
2022/06/01 09:05:47;;;;;;;4.67;2.35;;;;;;;17.60;69.44;100399.17;1751063;81;21208;-78
2022/06/01 09:08:32;;;;;;;2.85;2.30;;;;;;;17.83;69.43;100402.13;1750848;81;21099;-79
2022/06/01 09:11:13;;;;;;;2.40;2.20;;;;;;;17.97;68.68;100395.89;1749570;80;21020;-84
2022/06/01 09:14:06;;;;;;;3.33;2.20;;;;;;;18.02;68.22;100394.62;1751033;81;21041;-79
2022/06/01 09:16:43;;;;;;;3.42;2.40;;;;;;;18.06;67.40;100401.88;1750691;80;21105;-85
2022/06/01 09:19:18;;;;;;;3.30;2.77;;;;;;;18.11;67.23;100394.46;1750536;81;21702;-79
2022/06/01 09:24:44;;;;;;;3.25;2.50;;;;;;;18.20;66.37;100401.78;1750945;81;21067;-81
2022/06/01 09:27:14;;;;;;;3.40;2.30;;;;;;;18.30;66.26;100399.84;1750776;81;21041;-79
2022/06/01 09:29:49;;;;;;;;;;;;;;;18.39;65.66;100406.66;1753637;81;21041;-79
2022/06/01 09:32:33;;;;;;;2.42;1.98;;;;;;;18.47;65.41;100401.67;1750853;81;21150;-81
2022/06/01 09:35:05;;;;;;;2.10;1.85;;;;;;;18.62;65.48;100406.41;1750590;81;21029;-81
2022/06/01 09:37:42;;;;;;;2.17;1.98;;;;;;;18.77;64.98;100405.82;1750902;81;21052;-79
2022/06/01 09:40:28;;;;;;;2.80;1.98;;;;;;;18.85;64.46;100411.92;1771214;80;21027;-78
2022/06/01 09:43:00;;;;;;;2.00;1.75;;;;;;;18.86;63.80;100405.16;1750154;79;21066;-79
2022/06/01 09:45:53;;;;;;;1.77;1.50;;;;;;;18.91;63.78;100405.67;1750914;81;21101;-78
2022/06/01 09:48:31;;;;;;;2.70;1.40;;;;;;;19.01;63.66;100406.33;1750751;81;21002;-79
2022/06/01 09:51:03;;;;;;;4.17;1.60;;;;;;;18.98;62.69;100407.40;1750623;81;21140;-78
2022/06/01 09:53:41;;;;;;;1.47;1.27;;;;;;;19.08;62.67;100403.61;1750914;81;21033;-79
2022/06/01 09:56:09;;;;;;;1.72;1.62;;;;;;;19.16;61.98;100399.44;1750564;81;21151;-79
2022/06/01 10:07:27;;;;;;;1.95;1.30;;;;;;;19.39;60.15;100396.89;1750511;81;21060;-84
2022/06/01 10:10:01;;;;;;;1.67;1.30;;;;;;;19.53;60.02;100390.06;1750714;81;21040;-86
2022/06/01 10:12:47;;;;;;;1.57;1.37;;;;;;;19.83;60.24;100397.58;1750720;81;21090;-78
2022/06/01 10:15:32;;;;;;;1.30;1.20;;;;;;;19.83;59.24;100396.74;1750642;81;21104;-78
2022/06/01 10:18:14;;;;;;;2.02;1.17;;;;;;;19.80;58.64;100392.50;1750779;81;21482;-79
2022/06/01 10:20:49;;;;;;;2.20;1.25;;;;;;;19.76;58.52;100393.71;1750256;81;21115;-82
2022/06/01 10:23:31;;;;;;;4.22;1.30;;;;;;;19.74;58.12;100381.49;1779918;80;21048;-80
2022/06/01 10:26:03;;;;;;;2.35;1.15;;;;;;;19.74;57.94;100388.98;1785745;80;21118;-78
2022/06/01 10:28:47;;;;;;;2.65;1.00;;;;;;;19.76;57.68;100390.17;1785167;80;21016;-78
2022/06/01 10:31:49;;;;;;;1.37;1.20;;;;;;;19.70;57.09;100385.33;1785740;79;21079;-78
2022/06/01 10:34:37;;;;;;;1.98;0.93;;;;;;;19.64;56.87;100390.59;1763608;80;21042;-80
2022/06/01 10:37:24;;;;;;;2.33;1.30;;;;;;;19.54;56.46;100397.59;1785767;80;21576;-78
2022/06/01 10:40:08;;;;;;;1.98;1.40;;;;;;;19.48;56.64;100392.25;1785677;80;21182;-77
2022/06/01 10:43:17;;;;;;;2.02;1.10;;;;;;;19.43;56.17;100392.19;1785747;78;20908;-77
2022/06/01 10:45:55;;;;;;;1.42;1.07;;;;;;;19.33;55.84;100396.87;1785396;80;21655;-84
2022/06/01 10:48:39;;;;;;;1.50;1.12;;;;;;;19.24;55.62;100393.56;1764288;80;21673;-80
2022/06/01 10:51:21;;;;;;;1.82;1.00;;;;;;;19.21;55.89;100392.95;1785589;79;21047;-78
2022/06/01 10:54:05;;;;;;;1.77;1.10;;;;;;;19.12;55.45;100391.79;1784987;80;21860;-78
2022/06/01 10:56:33;;;;;;;1.42;1.12;;;;;;;19.04;55.61;100388.39;1785388;79;21117;-79
2022/06/01 10:59:08;;;;;;;1.47;1.05;;;;;;;19.03;55.80;100388.00;1761729;80;21694;-79
2022/06/01 11:02:00;;;;;;;1.87;1.30;;;;;;;19.02;55.85;100390.78;1785480;79;21039;-83
2022/06/01 11:04:58;;;;;;;1.55;1.05;;;;;;;18.99;55.51;100391.01;1785903;79;20991;-77
2022/06/01 11:08:02;;;;;;;1.17;0.90;;;;;;;18.96;55.50;100381.94;1744232;80;21896;-78
2022/06/01 11:10:54;;;;;;;1.70;1.17;;;;;;;18.95;55.35;100385.05;1785650;79;21512;-78
2022/06/01 11:13:49;;;;;;;2.00;1.20;;;;;;;18.93;55.35;100390.48;1785482;79;21607;-78
2022/06/01 11:16:55;;;;;;;1.12;1.02;;;;;;;18.94;55.11;100384.69;1784544;80;21031;-78
2022/06/01 11:20:01;;;;;;;1.75;1.20;;;;;;;18.99;55.08;100390.52;1785825;79;21098;-78
2022/06/01 11:23:04;;;;;;;2.22;1.02;;;;;;;19.10;55.09;100378.63;1785435;78;21096;-79
2022/06/01 11:26:04;;;;;;;1.52;0.98;;;;;;;19.35;55.03;100379.00;1785517;79;21043;-78
2022/06/01 11:28:55;;;;;;;1.37;1.27;;;;;;;19.56;54.47;100378.36;1785894;79;20999;-78
2022/06/01 11:31:26;;;;;;;2.27;1.30;;;;;;;19.59;54.11;100379.00;1784612;80;21047;-79
2022/06/01 11:34:14;;;;;;;2.52;1.22;;;;;;;19.57;54.08;100381.41;1762167;80;21059;-77
2022/06/01 11:36:52;;;;;;;2.15;1.10;;;;;;;19.96;54.52;100379.37;1722483;80;21778;-78
2022/06/01 11:39:37;;;;;;;3.17;0.93;;;;;;;20.70;54.36;100378.47;1780796;79;21067;-78
2022/06/01 11:42:16;;;;;;;2.77;1.10;;;;;;;21.24;53.63;100375.48;1785705;79;21013;-78
2022/06/01 11:45:00;;;;;;;1.92;1.05;;;;;;;21.87;53.31;100360.93;1785906;80;21552;-78
2022/06/01 11:47:46;;;;;;;3.42;1.00;;;;;;;22.46;52.63;100358.45;1784789;80;21533;-78
2022/06/01 11:50:28;;;;;;;1.02;0.93;;;;;;;22.87;51.62;100361.97;1785888;80;21097;-81
2022/06/01 11:53:07;;;;;;;1.30;0.95;;;;;;;22.65;49.78;100358.18;1756363;80;46942;-77
2022/06/01 11:55:40;;;;;;;1.10;0.90;;;;;;;22.37;49.30;100361.09;1779517;80;21024;-81
2022/06/01 11:58:24;;;;;;;2.62;1.10;;;;;;;22.12;48.95;100363.68;1780243;80;20992;-77
2022/06/01 12:00:57;;;;;;;7.65;1.10;;;;;;;21.91;49.30;100367.19;1767656;80;21066;-80
2022/06/01 12:03:35;;;;;;;3.80;1.20;;;;;;;21.61;49.72;100367.95;1777323;80;21102;-78
2022/06/01 12:06:13;;;;;;;4.83;1.52;;;;;;;21.15;50.65;100379.25;1780055;79;21054;-87
2022/06/01 12:08:54;;;;;;;5.47;1.40;;;;;;;20.62;52.40;100392.42;1780215;80;21095;-92
2022/06/01 12:11:42;;;;;;;3.05;1.30;;;;;;;19.68;53.13;100400.09;1780299;80;22287;-81
2022/06/01 12:14:42;;;;;;;1.52;1.32;;;;;;;18.76;54.93;100390.86;1780023;79;21589;-82
2022/06/01 12:17:20;;;;;;;5.65;1.67;;;;;;;18.43;56.77;100388.75;1739093;81;21632;-88
2022/06/01 12:19:52;;;;;;;4.47;1.92;;;;;;;18.17;58.79;100382.58;1737787;82;21032;-89
2022/06/01 12:29:10;;;;;;;2.42;1.62;;;;;;;19.35;63.43;100381.66;1741468;82;21494;-80
2022/06/01 12:31:58;;;;;;;2.15;1.30;;;;;;;19.92;63.29;100373.91;1724245;82;21098;-80
2022/06/01 12:34:32;;;;;;;2.77;1.10;;;;;;;20.36;61.83;100368.29;1739402;82;20929;-85